Airfield :
LOGIN :

Register | Disclaimer

   EN    FR    IT 

 










Legend :    VFR   Marginal VFR   IFR   Intensive IFR   Very Intensive IFR
Visi :
Ceiling :
>= 8 km
>= 3000ft
5 to 8 km
1000 to 3000 ft
1500m to 5 km
500 to 1000 ft
800 to 1500m
200 to 500 ft
< 800m
< 200 ft
Symbols :   Thunderstorms  Fog  Heavy snow  Heavy precipitations  Wind > 20 kt
SIGMETs :     Misc.  Thunderstorms  Icing  Turbulence  Mountain Waves  Volcanic Ashes







- Airport Elevation : 13 ft
- IATA code : LYX
- Download approach charts


EGMD - Lydd

CURRENT METAR :
  • 230450Z AUTO 31004KT 4700 BR OVC031/// 08/07 Q1029

EXPIRED METARs :
  • 230420Z AUTO 31004KT 4800 BR OVC029/// 08/08 Q1029
  • 230350Z AUTO 28004KT 4400 BR BKN026/// OVC031/// 08/07 Q1029
  • 230320Z AUTO 28004KT 3200 BR BKN029/// 08/07 Q1029
  • 230250Z AUTO 27005KT 3800 BR NCD 07/06 Q1029
  • 230220Z AUTO 24006KT 4800 BR NCD 08/07 Q1029

TAF TAF EGMD
Valid from the 23 at 03:00 until the 23 at 12:00 UTC


230201Z 2303/2312 22006KT 9999 BKN018
TEMPO 2303/2305 4000 HZ
PROB40
TEMPO 2305/2312 8000 -RA BKN012
BECMG 2306/2309 36010KT
ATIS : +44 1797 322 422
No reported NOTAMs for that airfield.



MET'MAP, your aeronautical weather chart ! - Copyright ORBIFLY December 2007 - Disclaimer

ORBIFLY MET'MAP TEAM :

Programming & Development : Alexandra Zaïnal
Concept & Development : Baudouin d'Aumeries
Co-Development & Prog : Marc-Olivier Méhu
Technical & hardware support : Manuel Goepfert

Contact : metmap@orbifly.com




SOURCES & CREDITS :

   NOAA